Time;durP1;ratioP1;P1;durP2;ratioP2;P2;SDS_P1;SDS_P2;PMS_P1;PMS_P2;Temp;Humidity;BMP_temperature;BMP_pressure;BME280_temperature;BME280_humidity;BME280_pressure;Samples;Min_cycle;Max_cycle;Signal;HPM_P1;HPM_P2
2022/05/28 00:01:25;;;;;;;0.73;0.10;;;30.60;34.10;;;;;;4969592;28;20047;-51
2022/05/28 00:03:57;;;;;;;0.30;0.10;;;30.60;34.10;;;;;;4969855;28;20049;-52
2022/05/28 00:06:28;;;;;;;0.30;0.10;;;30.60;34.10;;;;;;4970457;28;20118;-49
2022/05/28 00:08:56;;;;;;;0.35;0.00;;;30.60;34.10;;;;;;4969837;28;20046;-52
2022/05/28 00:11:26;;;;;;;0.55;0.55;;;30.50;34.10;;;;;;4970103;28;20070;-49
2022/05/28 00:13:54;;;;;;;1.55;0.38;;;30.50;34.10;;;;;;4970041;28;20055;-51
2022/05/28 00:16:21;;;;;;;0.63;0.10;;;30.50;34.10;;;;;;4969509;28;20499;-49
2022/05/28 00:18:51;;;;;;;0.73;0.13;;;30.50;34.10;;;;;;4969762;28;20043;-51
2022/05/28 00:21:20;;;;;;;1.00;0.10;;;30.50;34.10;;;;;;4969591;28;20447;-52
2022/05/28 00:23:48;;;;;;;0.20;0.10;;;30.50;34.10;;;;;;4969680;28;20057;-56
2022/05/28 00:26:16;;;;;;;1.30;0.25;;;30.50;34.10;;;;;;4964913;28;20050;-55
2022/05/28 00:28:44;;;;;;;0.15;0.10;;;30.50;34.70;;;;;;4967502;28;20047;-49
2022/05/28 00:31:11;;;;;;;0.75;0.20;;;30.50;34.10;;;;;;4957297;28;20674;-51
2022/05/28 00:33:38;;;;;;;4.38;0.22;;;30.50;34.10;;;;;;4966827;28;20047;-54
2022/05/28 00:36:08;;;;;;;2.83;0.10;;;30.50;34.20;;;;;;4949003;28;20082;-62
2022/05/28 00:38:35;;;;;;;0.63;0.30;;;30.50;34.40;;;;;;4972122;28;20070;-55
2022/05/28 00:41:04;;;;;;;0.57;0.10;;;30.50;34.70;;;;;;4969251;28;20049;-57
2022/05/28 00:43:32;;;;;;;8.27;0.38;;;30.60;34.80;;;;;;4967074;28;20058;-51
2022/05/28 00:46:02;;;;;;;2.70;0.30;;;30.60;34.80;;;;;;4969120;28;20046;-49
2022/05/28 00:48:32;;;;;;;0.30;0.10;;;30.40;34.80;;;;;;4969057;28;20117;-52
2022/05/28 00:51:06;;;;;;;3.65;0.13;;;30.20;35.10;;;;;;4968991;28;20121;-50
2022/05/28 00:53:34;;;;;;;4.65;0.75;;;29.90;35.50;;;;;;4967530;28;20043;-56
2022/05/28 00:56:03;;;;;;;2.50;0.10;;;29.50;35.80;;;;;;4969017;28;20031;-57
2022/05/28 00:58:31;;;;;;;1.20;0.10;;;29.30;36.20;;;;;;4966446;28;20057;-57
2022/05/28 01:00:59;;;;;;;3.30;0.50;;;29.00;36.50;;;;;;4967533;28;20039;-58
2022/05/28 01:03:32;;;;;;;1.92;0.10;;;28.90;36.90;;;;;;4966443;28;20226;-57
2022/05/28 01:06:07;;;;;;;3.63;0.30;;;28.60;37.10;;;;;;4968172;28;20043;-58
2022/05/28 01:08:41;;;;;;;8.17;0.20;;;28.50;37.50;;;;;;4966775;28;20055;-58
2022/05/28 01:11:19;;;;;;;3.28;0.30;;;28.40;37.80;;;;;;4970204;28;20102;-58
2022/05/28 01:13:52;;;;;;;0.73;0.40;;;28.20;38.60;;;;;;4968277;28;20490;-58
2022/05/28 01:16:26;;;;;;;2.40;0.30;;;28.10;38.40;;;;;;4968454;28;20395;-59
2022/05/28 01:18:58;;;;;;;2.55;0.35;;;28.00;38.60;;;;;;4968145;28;20070;-58
2022/05/28 01:21:32;;;;;;;2.55;1.20;;;27.80;38.80;;;;;;4968014;28;20042;-59
2022/05/28 01:24:08;;;;;;;3.13;0.28;;;27.70;39.00;;;;;;4965713;28;20165;-59
2022/05/28 01:26:47;;;;;;;5.15;0.30;;;27.70;40.00;;;;;;4968213;28;20035;-56
2022/05/28 01:29:17;;;;;;;20.48;1.88;;;27.60;39.60;;;;;;4968685;28;20039;-57
2022/05/28 01:31:46;;;;;;;1.73;0.88;;;27.50;39.80;;;;;;4968886;28;20046;-58
2022/05/28 01:34:16;;;;;;;3.50;0.30;;;27.40;40.70;;;;;;4965609;28;20050;-55
2022/05/28 01:36:44;;;;;;;1.85;0.30;;;27.40;40.40;;;;;;4961953;28;20039;-57
2022/05/28 01:39:12;;;;;;;1.83;0.30;;;27.30;40.70;;;;;;4967930;28;20141;-58
2022/05/28 01:41:39;;;;;;;1.88;0.40;;;27.30;41.00;;;;;;4961847;28;20035;-58
2022/05/28 01:44:12;;;;;;;1.85;0.10;;;27.20;41.30;;;;;;4969803;28;20065;-56
2022/05/28 01:46:41;;;;;;;2.42;0.90;;;27.20;41.70;;;;;;4968884;28;20137;-56
2022/05/28 01:49:13;;;;;;;2.55;0.50;;;27.10;42.00;;;;;;4967622;28;20041;-57
2022/05/28 01:51:44;;;;;;;3.28;0.75;;;27.10;42.40;;;;;;4967418;28;20102;-57
2022/05/28 01:54:17;;;;;;;0.95;0.20;;;27.10;42.80;;;;;;4967880;28;20625;-57
2022/05/28 01:56:48;;;;;;;0.70;0.17;;;27.00;43.10;;;;;;4963906;28;20157;-57
2022/05/28 01:59:23;;;;;;;1.85;0.65;;;27.00;43.40;;;;;;4968145;28;20062;-57
2022/05/28 02:01:51;;;;;;;1.35;0.30;;;27.00;43.60;;;;;;4969373;28;20109;-58
2022/05/28 02:04:18;;;;;;;4.72;0.30;;;26.90;43.80;;;;;;4967433;28;20568;-57
2022/05/28 02:06:45;;;;;;;0.75;0.10;;;26.90;44.10;;;;;;4967620;28;20121;-59
2022/05/28 02:09:17;;;;;;;1.95;0.10;;;26.90;44.50;;;;;;4967361;28;20053;-58
2022/05/28 02:11:56;;;;;;;4.07;0.20;;;26.90;44.90;;;;;;4967061;28;20057;-58
2022/05/28 02:14:29;;;;;;;2.17;0.25;;;26.80;45.20;;;;;;4967765;28;20135;-58
2022/05/28 02:17:06;;;;;;;1.65;0.20;;;26.80;45.60;;;;;;4967902;28;20070;-56
2022/05/28 02:19:44;;;;;;;1.13;0.20;;;26.80;45.90;;;;;;4967210;28;20066;-58
2022/05/28 02:22:18;;;;;;;0.30;0.10;;;26.80;46.30;;;;;;4967321;28;20074;-56
2022/05/28 02:24:56;;;;;;;3.63;0.25;;;26.70;46.40;;;;;;4966857;28;20038;-58
2022/05/28 02:27:26;;;;;;;6.43;0.20;;;26.70;46.60;;;;;;4967124;28;20050;-57
2022/05/28 02:29:55;;;;;;;6.38;0.20;;;26.70;46.80;;;;;;4949430;28;20565;-57
2022/05/28 02:32:25;;;;;;;0.70;0.32;;;26.70;47.00;;;;;;4967416;28;20061;-57
2022/05/28 02:34:52;;;;;;;4.95;0.20;;;26.70;47.30;;;;;;4967941;28;20433;-55
2022/05/28 02:37:21;;;;;;;2.58;0.38;;;26.70;47.50;;;;;;4967154;28;20502;-56
2022/05/28 02:39:49;;;;;;;1.67;0.30;;;26.70;47.70;;;;;;4966724;28;20496;-56
2022/05/28 02:42:16;;;;;;;0.80;0.10;;;26.60;47.80;;;;;;4967052;28;20575;-56
2022/05/28 02:44:43;;;;;;;3.22;0.35;;;26.60;47.90;;;;;;4967609;28;20074;-58
2022/05/28 02:47:12;;;;;;;1.27;0.95;;;26.70;48.10;;;;;;4968018;28;20038;-56
2022/05/28 02:49:39;;;;;;;2.50;0.52;;;26.60;48.30;;;;;;4967676;28;20218;-54
2022/05/28 02:52:08;;;;;;;0.93;0.25;;;26.60;48.30;;;;;;4967256;28;20054;-56
2022/05/28 02:54:35;;;;;;;0.50;0.35;;;26.60;48.50;;;;;;4966930;28;20062;-53
2022/05/28 02:57:04;;;;;;;1.50;0.25;;;26.60;48.60;;;;;;4966927;28;20519;-55
2022/05/28 02:59:32;;;;;;;1.17;0.35;;;26.60;48.80;;;;;;4966709;28;20031;-54
2022/05/28 03:01:59;;;;;;;1.00;0.20;;;26.60;48.90;;;;;;4968493;28;20065;-56
2022/05/28 03:04:27;;;;;;;0.98;0.20;;;26.60;49.00;;;;;;4970277;28;20577;-53
2022/05/28 03:06:54;;;;;;;0.65;0.65;;;26.60;49.10;;;;;;4970734;28;20046;-55
2022/05/28 03:09:22;;;;;;;1.65;0.32;;;26.60;49.10;;;;;;4970407;28;20066;-52
2022/05/28 03:11:49;;;;;;;1.95;0.30;;;26.60;49.10;;;;;;4970584;28;20035;-55
2022/05/28 03:14:17;;;;;;;0.68;0.35;;;26.60;49.10;;;;;;4971158;28;20135;-55
2022/05/28 03:16:44;;;;;;;0.63;0.50;;;26.60;49.20;;;;;;4971232;28;20070;-54
2022/05/28 03:19:11;;;;;;;0.20;0.10;;;26.50;49.10;;;;;;4969977;28;20062;-55
2022/05/28 03:21:40;;;;;;;0.30;0.20;;;26.60;49.10;;;;;;4970188;28;20467;-56
2022/05/28 03:24:07;;;;;;;1.58;0.10;;;26.60;49.20;;;;;;4972986;28;20768;-53
2022/05/28 03:26:35;;;;;;;0.43;0.17;;;26.50;49.10;;;;;;4970297;28;20027;-55
2022/05/28 03:29:03;;;;;;;0.63;0.30;;;26.60;49.10;;;;;;4972571;28;20051;-55
2022/05/28 03:31:30;;;;;;;0.95;0.28;;;26.50;49.00;;;;;;4970086;28;20038;-55
2022/05/28 03:33:58;;;;;;;1.35;0.15;;;26.50;48.90;;;;;;4968669;28;20618;-56
2022/05/28 03:36:26;;;;;;;0.73;0.20;;;26.50;48.90;;;;;;4970174;28;20039;-58
2022/05/28 03:38:54;;;;;;;1.95;0.47;;;26.50;48.90;;;;;;4969534;28;20125;-58
2022/05/28 03:41:22;;;;;;;1.45;0.43;;;26.50;48.90;;;;;;4970322;28;20031;-58
2022/05/28 03:43:50;;;;;;;3.10;0.15;;;26.50;48.80;;;;;;4971599;28;20043;-57
2022/05/28 03:46:27;;;;;;;3.60;0.28;;;26.50;48.80;;;;;;4969577;28;20038;-57
2022/05/28 03:48:58;;;;;;;0.75;0.30;;;26.50;48.80;;;;;;4969512;28;20062;-55
2022/05/28 03:51:26;;;;;;;2.47;0.10;;;26.40;48.80;;;;;;4969331;28;20039;-58
2022/05/28 03:53:54;;;;;;;1.05;0.10;;;26.40;48.70;;;;;;4970509;28;20074;-58
2022/05/28 03:56:21;;;;;;;0.63;0.10;;;26.40;48.70;;;;;;4970846;28;20121;-55
2022/05/28 03:58:50;;;;;;;0.47;0.40;;;26.40;48.60;;;;;;4971888;28;20368;-58
2022/05/28 04:01:18;;;;;;;0.60;0.10;;;26.40;48.60;;;;;;4969554;28;20058;-58
2022/05/28 04:03:45;;;;;;;0.55;0.30;;;26.40;48.60;;;;;;4969826;28;20439;-56
2022/05/28 04:06:13;;;;;;;1.90;0.10;;;26.40;48.60;;;;;;4969437;28;20134;-56
2022/05/28 04:08:40;;;;;;;1.35;0.43;;;26.30;48.40;;;;;;4969357;28;20046;-59
2022/05/28 04:11:09;;;;;;;1.98;0.25;;;26.30;48.40;;;;;;4971244;28;20061;-59
2022/05/28 04:13:36;;;;;;;0.82;0.10;;;26.30;48.40;;;;;;4970170;28;20087;-60
2022/05/28 04:16:03;;;;;;;0.95;0.15;;;26.30;48.50;;;;;;4969558;28;20501;-59
2022/05/28 04:18:30;;;;;;;1.48;0.75;;;26.30;48.40;;;;;;4969274;28;20046;-59
2022/05/28 04:20:57;;;;;;;1.55;0.10;;;26.30;48.40;;;;;;4969116;28;20085;-59
2022/05/28 04:23:24;;;;;;;1.10;0.15;;;26.30;48.40;;;;;;4969674;28;20049;-58
2022/05/28 04:25:52;;;;;;;0.75;0.10;;;26.30;48.40;;;;;;4970276;28;20623;-58
2022/05/28 04:28:20;;;;;;;2.83;0.10;;;26.20;48.30;;;;;;4969165;28;20042;-59
2022/05/28 04:30:47;;;;;;;1.08;0.10;;;26.20;48.30;;;;;;4968936;28;20043;-59
2022/05/28 04:33:14;;;;;;;0.30;0.10;;;26.20;48.40;;;;;;4969047;28;20067;-59
2022/05/28 04:35:41;;;;;;;0.10;0.10;;;26.20;48.40;;;;;;4968701;28;20051;-58
2022/05/28 04:38:08;;;;;;;0.10;0.10;;;26.20;48.40;;;;;;4968482;28;20039;-59
2022/05/28 04:40:36;;;;;;;0.68;0.20;;;26.20;48.50;;;;;;4968786;28;20133;-57
2022/05/28 04:43:03;;;;;;;1.65;0.10;;;26.20;48.50;;;;;;4967783;28;20066;-58
2022/05/28 04:45:32;;;;;;;0.10;0.10;;;26.10;48.60;;;;;;4967310;28;20137;-59
2022/05/28 04:47:59;;;;;;;1.35;0.10;;;26.10;48.60;;;;;;4967154;28;20050;-59
2022/05/28 04:50:26;;;;;;;1.15;0.10;;;26.20;48.70;;;;;;4968345;28;20125;-54
2022/05/28 04:52:53;;;;;;;1.55;0.20;;;26.10;48.70;;;;;;4970408;28;20043;-54
2022/05/28 04:55:20;;;;;;;0.40;0.10;;;26.10;48.80;;;;;;4966953;28;20147;-56
2022/05/28 04:57:48;;;;;;;2.03;0.10;;;26.10;48.80;;;;;;4968436;28;20041;-57
2022/05/28 05:00:19;;;;;;;1.30;0.10;;;26.10;48.70;;;;;;4968118;28;20074;-57
2022/05/28 05:02:47;;;;;;;3.28;0.20;;;26.10;48.70;;;;;;4967894;28;20142;-56
2022/05/28 05:05:15;;;;;;;2.60;0.10;;;26.10;48.70;;;;;;4967770;28;20069;-55
2022/05/28 05:07:42;;;;;;;0.32;0.10;;;26.10;48.80;;;;;;4968841;28;20141;-55
2022/05/28 05:10:10;;;;;;;0.73;0.20;;;26.10;48.80;;;;;;4965189;28;20507;-57
2022/05/28 05:12:38;;;;;;;1.30;0.20;;;26.10;48.80;;;;;;4966171;28;20047;-57
2022/05/28 05:15:06;;;;;;;1.08;0.20;;;26.10;48.70;;;;;;4964163;28;20070;-56
2022/05/28 05:17:33;;;;;;;5.50;0.47;;;26.10;48.90;;;;;;4962562;28;20209;-56
2022/05/28 05:20:02;;;;;;;2.85;0.10;;;26.10;48.90;;;;;;4963034;28;20061;-57
2022/05/28 05:22:29;;;;;;;1.92;0.10;;;26.10;49.00;;;;;;4966661;28;20054;-56
2022/05/28 05:24:56;;;;;;;0.93;0.10;;;26.00;48.90;;;;;;4967160;28;20043;-55
2022/05/28 05:27:23;;;;;;;2.65;0.10;;;26.00;48.80;;;;;;4967494;28;20058;-56
2022/05/28 05:29:50;;;;;;;1.60;0.30;;;26.00;48.80;;;;;;4967882;28;20039;-55
2022/05/28 05:32:17;;;;;;;0.70;0.20;;;26.00;48.80;;;;;;4964516;28;20118;-57
2022/05/28 05:34:45;;;;;;;0.73;0.47;;;26.00;48.80;;;;;;4966356;28;20041;-50
2022/05/28 05:37:14;;;;;;;0.73;0.30;;;26.00;49.10;;;;;;4967622;28;20600;-54
2022/05/28 05:39:41;;;;;;;0.45;0.38;;;26.00;49.40;;;;;;4965242;28;20043;-54
2022/05/28 05:42:09;;;;;;;1.35;0.30;;;26.00;49.40;;;;;;4966032;28;20047;-52
2022/05/28 05:44:36;;;;;;;5.38;0.10;;;26.10;49.40;;;;;;4966892;28;20141;-54
2022/05/28 05:47:04;;;;;;;2.42;0.10;;;26.10;49.40;;;;;;4967426;28;20511;-52
2022/05/28 05:49:31;;;;;;;0.93;0.10;;;26.10;49.40;;;;;;4966530;28;20027;-53
2022/05/28 05:51:58;;;;;;;2.38;0.15;;;26.10;49.30;;;;;;4967623;28;20053;-50
2022/05/28 05:54:27;;;;;;;2.15;0.20;;;26.10;49.30;;;;;;4967377;28;20034;-52
2022/05/28 05:56:55;;;;;;;20.85;0.98;;;26.10;49.20;;;;;;4964800;28;20209;-54
2022/05/28 05:59:22;;;;;;;8.30;0.20;;;26.10;51.70;;;;;;4948798;28;20045;-51
2022/05/28 06:01:50;;;;;;;6.03;0.32;;;26.10;52.50;;;;;;4968353;28;20138;-49
2022/05/28 06:04:18;;;;;;;12.55;1.77;;;26.10;52.60;;;;;;4966330;28;20495;-50
2022/05/28 06:06:45;;;;;;;9.52;0.80;;;26.10;53.10;;;;;;4967114;28;20042;-52
2022/05/28 06:09:12;;;;;;;5.97;1.58;;;26.20;53.10;;;;;;4967394;28;20649;-49
2022/05/28 06:11:41;;;;;;;5.43;0.55;;;26.20;53.00;;;;;;4964737;28;20102;-52
2022/05/28 06:14:08;;;;;;;4.57;0.80;;;26.20;53.00;;;;;;4966675;28;20053;-52
2022/05/28 06:16:35;;;;;;;11.60;1.92;;;26.20;52.90;;;;;;4967257;28;20054;-51
2022/05/28 06:19:03;;;;;;;6.78;0.73;;;26.20;52.80;;;;;;4966955;28;20042;-48
2022/05/28 06:21:31;;;;;;;4.85;0.20;;;26.20;52.70;;;;;;4967261;28;20490;-51
2022/05/28 06:24:00;;;;;;;7.70;1.20;;;26.20;52.60;;;;;;4967280;28;20042;-50
2022/05/28 06:26:28;;;;;;;2.10;0.45;;;26.20;52.50;;;;;;4967242;28;20047;-51
2022/05/28 06:28:56;;;;;;;0.77;0.30;;;26.20;52.20;;;;;;4967618;28;20043;-48
2022/05/28 06:31:24;;;;;;;1.40;0.40;;;26.20;52.70;;;;;;4966811;28;20518;-55
2022/05/28 06:33:51;;;;;;;4.68;0.52;;;26.20;52.60;;;;;;4967318;28;20042;-50
2022/05/28 06:36:18;;;;;;;5.15;0.30;;;26.20;51.80;;;;;;4967158;28;20046;-52
2022/05/28 06:38:45;;;;;;;3.95;0.95;;;26.20;51.70;;;;;;4966508;28;20097;-52
2022/05/28 06:41:13;;;;;;;5.15;1.05;;;26.20;51.60;;;;;;4950669;28;20050;-51
2022/05/28 06:43:41;;;;;;;2.67;0.35;;;26.30;51.40;;;;;;4968137;28;20102;-49
2022/05/28 06:46:11;;;;;;;3.70;0.77;;;26.30;51.30;;;;;;4966899;28;20079;-52
2022/05/28 06:48:38;;;;;;;3.08;0.52;;;26.30;51.20;;;;;;4967337;28;20121;-53
2022/05/28 06:51:06;;;;;;;1.98;0.52;;;26.30;51.00;;;;;;4967832;28;20045;-54
2022/05/28 06:53:37;;;;;;;2.85;0.47;;;26.30;50.90;;;;;;4967620;28;20057;-52
2022/05/28 06:56:05;;;;;;;1.33;0.32;;;26.30;50.80;;;;;;4969610;28;20121;-52
2022/05/28 06:58:33;;;;;;;2.90;0.70;;;26.40;50.70;;;;;;4967382;28;20043;-50
2022/05/28 07:01:01;;;;;;;1.77;0.20;;;26.30;50.50;;;;;;4966472;28;20038;-50
2022/05/28 07:03:30;;;;;;;1.42;0.50;;;26.40;50.50;;;;;;4967403;28;20578;-49
2022/05/28 07:05:58;;;;;;;1.85;0.25;;;26.40;50.40;;;;;;4966915;28;20047;-49
2022/05/28 07:08:26;;;;;;;3.92;0.38;;;26.40;50.20;;;;;;4967262;28;20073;-50
2022/05/28 07:10:55;;;;;;;2.85;0.30;;;26.40;50.10;;;;;;4966989;28;20502;-52
2022/05/28 07:13:24;;;;;;;2.85;0.82;;;26.40;49.90;;;;;;4966834;28;20452;-51
2022/05/28 07:15:52;;;;;;;4.93;0.25;;;26.40;49.80;;;;;;4966297;28;20058;-50
2022/05/28 07:18:20;;;;;;;1.27;0.73;;;26.40;49.70;;;;;;4966719;28;20090;-51
2022/05/28 07:20:49;;;;;;;0.40;0.30;;;26.40;49.60;;;;;;4966781;28;20066;-49
2022/05/28 07:23:19;;;;;;;1.00;0.20;;;26.50;49.60;;;;;;4967385;28;20059;-50
2022/05/28 07:25:47;;;;;;;2.22;0.30;;;26.50;49.50;;;;;;4967770;28;20050;-51
2022/05/28 07:28:28;;;;;;;1.15;0.20;;;26.50;49.30;;;;;;4966813;28;20035;-49
2022/05/28 07:30:57;;;;;;;2.00;0.35;;;26.50;49.20;;;;;;4966631;28;20084;-52
2022/05/28 07:33:26;;;;;;;1.63;0.70;;;26.50;49.10;;;;;;4960827;28;20066;-51
2022/05/28 07:35:56;;;;;;;2.28;0.20;;;26.50;49.00;;;;;;4960695;28;20110;-50
2022/05/28 07:38:25;;;;;;;1.13;0.20;;;26.50;48.90;;;;;;4963759;28;20051;-49
2022/05/28 07:40:53;;;;;;;2.00;0.20;;;26.50;48.70;;;;;;4966900;28;20573;-53
2022/05/28 07:43:21;;;;;;;0.65;0.20;;;26.50;48.60;;;;;;4966536;28;20141;-48
2022/05/28 07:45:49;;;;;;;1.58;0.45;;;26.60;48.60;;;;;;4966167;28;20452;-48
2022/05/28 07:48:17;;;;;;;1.30;0.43;;;26.60;48.50;;;;;;4966475;28;20122;-48
2022/05/28 07:50:45;;;;;;;1.83;0.45;;;26.60;48.40;;;;;;4970120;28;20043;-53
2022/05/28 07:53:14;;;;;;;1.77;0.30;;;26.60;48.90;;;;;;4953568;28;20527;-53
2022/05/28 07:55:41;;;;;;;2.42;0.38;;;26.60;48.20;;;;;;4971293;28;20042;-53
2022/05/28 07:58:11;;;;;;;1.90;0.35;;;26.60;48.10;;;;;;4969992;28;20043;-54
2022/05/28 08:00:42;;;;;;;2.55;0.90;;;26.60;48.10;;;;;;4969996;28;20078;-53
2022/05/28 08:03:10;;;;;;;0.40;0.30;;;26.60;48.00;;;;;;4952730;28;20090;-53
2022/05/28 08:05:39;;;;;;;0.45;0.45;;;26.60;47.90;;;;;;4969678;28;20051;-50
2022/05/28 08:08:07;;;;;;;1.90;0.20;;;26.60;47.80;;;;;;4971638;28;20051;-52
2022/05/28 08:10:36;;;;;;;4.57;0.30;;;26.60;47.70;;;;;;4969770;28;20045;-51
2022/05/28 08:13:06;;;;;;;3.25;1.00;;;26.60;47.60;;;;;;4969455;28;20126;-49
2022/05/28 08:15:35;;;;;;;2.85;0.95;;;26.60;47.80;;;;;;4969732;28;20042;-50
2022/05/28 08:18:03;;;;;;;3.95;0.32;;;26.60;47.40;;;;;;4968253;28;20118;-52
2022/05/28 08:23:18;;;;;;;2.35;0.40;;;26.60;47.30;;;;;;4968291;28;20061;-52
2022/05/28 08:25:48;;;;;;;2.92;0.88;;;26.60;47.20;;;;;;4971141;28;20067;-50
2022/05/28 08:28:17;;;;;;;2.80;0.60;;;26.60;47.10;;;;;;4969170;28;20589;-49
2022/05/28 08:30:44;;;;;;;3.55;0.30;;;26.60;47.10;;;;;;4969649;28;20042;-49
2022/05/28 08:33:13;;;;;;;2.88;0.60;;;26.60;47.00;;;;;;4969984;28;20071;-48
2022/05/28 08:35:41;;;;;;;3.65;0.40;;;26.60;46.90;;;;;;4968760;28;20100;-49
2022/05/28 08:38:13;;;;;;;2.97;0.35;;;26.60;46.80;;;;;;4970598;28;20138;-49
2022/05/28 08:40:44;;;;;;;1.63;0.95;;;26.60;47.00;;;;;;4970288;28;20047;-52
2022/05/28 08:43:14;;;;;;;3.40;0.50;;;26.60;46.60;;;;;;4968899;28;20492;-50
2022/05/28 08:45:42;;;;;;;3.63;0.30;;;26.60;46.60;;;;;;4969027;28;20121;-53
2022/05/28 08:48:09;;;;;;;1.25;0.35;;;26.60;46.50;;;;;;4969183;28;20045;-53
2022/05/28 08:50:47;;;;;;;4.88;0.40;;;26.60;46.40;;;;;;4969113;28;20117;-50
2022/05/28 08:53:16;;;;;;;4.22;1.20;;;26.70;46.40;;;;;;4966297;28;20049;-50
2022/05/28 08:55:48;;;;;;;3.42;0.28;;;26.60;46.40;;;;;;4969698;28;20047;-50
2022/05/28 08:58:20;;;;;;;0.88;0.15;;;26.60;46.30;;;;;;4951395;28;20130;-50
2022/05/28 09:00:51;;;;;;;1.17;0.20;;;26.60;46.20;;;;;;4967758;28;20511;-50
2022/05/28 09:03:22;;;;;;;3.40;0.30;;;26.60;46.20;;;;;;4951570;28;20066;-50
2022/05/28 09:05:54;;;;;;;1.55;0.55;;;26.70;46.20;;;;;;4968803;28;20043;-53
2022/05/28 09:08:27;;;;;;;3.95;0.45;;;26.70;46.10;;;;;;4969275;28;20051;-52
2022/05/28 09:10:55;;;;;;;1.60;0.43;;;26.70;46.00;;;;;;4968905;28;20418;-51
2022/05/28 09:13:29;;;;;;;2.42;0.20;;;26.70;45.90;;;;;;4968889;28;20145;-50
2022/05/28 09:15:58;;;;;;;2.35;0.20;;;26.70;45.80;;;;;;4968770;28;20042;-53
2022/05/28 09:18:31;;;;;;;2.17;0.40;;;26.70;45.80;;;;;;4968556;28;20043;-50
2022/05/28 09:20:58;;;;;;;2.28;1.02;;;26.80;45.80;;;;;;4968732;28;20054;-49
2022/05/28 09:23:26;;;;;;;1.70;0.32;;;26.70;45.60;;;;;;4969022;28;20050;-52
2022/05/28 09:25:56;;;;;;;0.70;0.47;;;26.80;45.60;;;;;;4969556;28;20505;-52
2022/05/28 09:28:37;;;;;;;2.15;0.30;;;26.80;45.50;;;;;;4969239;28;20043;-52
2022/05/28 09:31:15;;;;;;;1.02;0.47;;;26.80;46.00;;;;;;4967462;28;20117;-51
2022/05/28 09:34:07;;;;;;;3.75;0.40;;;26.80;45.40;;;;;;4968616;28;20042;-49
2022/05/28 09:36:44;;;;;;;1.98;0.45;;;26.80;45.30;;;;;;4968554;28;20114;-49
2022/05/28 09:39:25;;;;;;;4.35;0.60;;;26.80;45.20;;;;;;4962480;28;20043;-51
2022/05/28 09:42:02;;;;;;;2.50;0.88;;;26.80;45.20;;;;;;4964775;28;20047;-51
2022/05/28 09:45:03;;;;;;;1.63;0.30;;;26.90;45.20;;;;;;4968654;28;20129;-53
2022/05/28 09:47:30;;;;;;;2.40;0.30;;;26.90;45.00;;;;;;4964776;28;20430;-51
2022/05/28 09:49:58;;;;;;;1.30;0.38;;;26.90;45.00;;;;;;4969855;28;20583;-52
2022/05/28 09:52:29;;;;;;;3.53;0.70;;;26.90;45.10;;;;;;4968319;28;20074;-50
2022/05/28 09:55:14;;;;;;;0.90;0.28;;;26.90;44.80;;;;;;4967794;28;20035;-53
2022/05/28 09:57:52;;;;;;;2.03;0.20;;;26.90;44.70;;;;;;4967964;28;20035;-51
2022/05/28 10:00:22;;;;;;;2.72;0.32;;;26.90;44.70;;;;;;4967795;28;20035;-48
2022/05/28 10:05:45;;;;;;;1.50;0.45;;;27.00;44.60;;;;;;4967404;28;20407;-48
2022/05/28 10:08:14;;;;;;;1.75;0.30;;;27.00;44.40;;;;;;4965844;28;20081;-51
2022/05/28 10:10:41;;;;;;;2.28;0.40;;;27.00;44.40;;;;;;4968431;28;20053;-50
2022/05/28 10:13:11;;;;;;;4.57;0.50;;;27.00;44.40;;;;;;4967479;28;20098;-49
2022/05/28 10:15:43;;;;;;;3.20;0.88;;;27.00;44.20;;;;;;4968075;28;20051;-51
2022/05/28 10:18:14;;;;;;;3.20;0.80;;;27.00;44.20;;;;;;4970171;28;20077;-49
2022/05/28 10:20:41;;;;;;;5.45;0.50;;;27.00;44.20;;;;;;4966270;28;20499;-50
2022/05/28 10:23:15;;;;;;;0.50;0.20;;;27.00;44.00;;;;;;4966496;28;20069;-50
2022/05/28 10:25:48;;;;;;;2.53;0.47;;;27.10;44.00;;;;;;4969689;28;20516;-50
2022/05/28 10:28:27;;;;;;;4.15;0.63;;;27.10;43.90;;;;;;4970059;28;20047;-49
2022/05/28 10:30:56;;;;;;;2.50;0.20;;;27.10;43.80;;;;;;4961344;28;20042;-49
2022/05/28 10:33:26;;;;;;;2.72;0.60;;;27.10;43.80;;;;;;4969361;28;20145;-50
2022/05/28 10:35:53;;;;;;;1.45;0.40;;;27.10;43.70;;;;;;4962738;28;20042;-50
2022/05/28 10:38:24;;;;;;;1.75;0.30;;;27.10;44.30;;;;;;4965173;28;20046;-50
2022/05/28 10:40:54;;;;;;;1.75;0.82;;;27.10;43.50;;;;;;4969342;28;20059;-50
2022/05/28 10:43:27;;;;;;;4.20;0.73;;;27.10;43.50;;;;;;4969411;28;20134;-51
2022/05/28 10:46:03;;;;;;;1.58;0.30;;;27.20;43.50;;;;;;4949614;28;20141;-53
2022/05/28 10:48:41;;;;;;;3.72;0.98;;;27.20;43.40;;;;;;4969645;28;20499;-48
2022/05/28 10:51:20;;;;;;;1.00;0.35;;;27.20;43.40;;;;;;4969280;28;20065;-49
2022/05/28 10:54:07;;;;;;;1.40;0.77;;;27.20;43.30;;;;;;4966742;28;20057;-49
2022/05/28 10:56:47;;;;;;;3.70;0.20;;;27.20;43.20;;;;;;4967007;28;20129;-53
2022/05/28 10:59:28;;;;;;;1.30;0.30;;;27.20;43.20;;;;;;4968081;28;20039;-50
2022/05/28 11:02:05;;;;;;;0.90;0.20;;;27.20;43.20;;;;;;4967411;28;20142;-52
2022/05/28 11:04:50;;;;;;;0.80;0.20;;;27.20;43.00;;;;;;4967837;28;20042;-50
2022/05/28 11:07:43;;;;;;;0.80;0.68;;;27.20;42.90;;;;;;4966601;28;20070;-48
2022/05/28 11:10:22;;;;;;;1.73;0.30;;;27.30;42.90;;;;;;4967617;28;20070;-52
2022/05/28 11:13:10;;;;;;;2.42;0.77;;;27.20;42.80;;;;;;4967158;28;20511;-52
2022/05/28 11:15:50;;;;;;;1.05;0.45;;;27.30;43.50;;;;;;4963226;28;20603;-49
2022/05/28 11:18:46;;;;;;;1.20;0.40;;;27.30;42.90;;;;;;4967260;28;20054;-49
2022/05/28 11:21:25;;;;;;;5.35;0.30;;;27.30;42.80;;;;;;4908747;29;20056;-50
2022/05/28 11:24:16;;;;;;;1.85;0.20;;;27.30;42.80;;;;;;4905974;29;20127;-50
2022/05/28 11:26:52;;;;;;;3.03;0.47;;;27.30;42.60;;;;;;4911389;29;20052;-53
2022/05/28 11:29:41;;;;;;;1.30;0.20;;;27.30;42.60;;;;;;4911451;29;20138;-52
2022/05/28 11:32:14;;;;;;;0.50;0.20;;;27.40;42.60;;;;;;4909724;29;20056;-53
2022/05/28 11:34:48;;;;;;;1.08;0.30;;;27.40;42.60;;;;;;4912667;29;20050;-49
2022/05/28 11:37:21;;;;;;;2.40;0.15;;;27.40;42.50;;;;;;4911554;29;20100;-50
2022/05/28 11:39:56;;;;;;;1.85;0.40;;;27.50;42.50;;;;;;4911196;29;20058;-53
2022/05/28 11:42:31;;;;;;;1.55;0.17;;;27.40;42.40;;;;;;4911679;29;20048;-50
2022/05/28 11:45:02;;;;;;;4.50;0.20;;;27.50;42.30;;;;;;4906202;29;20595;-50
2022/05/28 11:47:42;;;;;;;0.57;0.30;;;27.50;42.30;;;;;;4911386;29;20517;-51
2022/05/28 11:53:10;;;;;;;0.70;0.20;;;27.50;42.10;;;;;;4912327;29;20052;-53
2022/05/28 11:55:41;;;;;;;1.58;0.50;;;27.50;42.00;;;;;;4912180;29;20146;-52
2022/05/28 11:58:15;;;;;;;1.60;0.65;;;27.50;42.00;;;;;;4935014;28;20129;-50
2022/05/28 12:00:46;;;;;;;1.98;0.20;;;27.50;41.90;;;;;;4970120;28;20569;-49
2022/05/28 12:03:18;;;;;;;2.45;0.15;;;27.50;41.80;;;;;;4953312;28;20046;-54
2022/05/28 12:05:51;;;;;;;1.35;0.17;;;27.60;41.80;;;;;;4964470;28;20081;-53
2022/05/28 12:08:26;;;;;;;3.60;0.43;;;27.60;41.70;;;;;;4970640;28;20061;-52
2022/05/28 12:10:59;;;;;;;0.70;0.20;;;27.60;41.60;;;;;;4970122;28;20157;-50
2022/05/28 12:13:34;;;;;;;3.13;0.73;;;27.60;41.50;;;;;;4969930;28;20046;-50
2022/05/28 12:16:10;;;;;;;0.52;0.52;;;27.70;41.50;;;;;;4970023;28;20042;-52
2022/05/28 12:18:40;;;;;;;2.13;0.10;;;27.70;42.00;;;;;;4963768;28;20050;-52
2022/05/28 12:21:08;;;;;;;1.90;0.10;;;27.70;41.40;;;;;;4963635;28;20123;-54
2022/05/28 12:23:38;;;;;;;0.45;0.28;;;27.80;41.30;;;;;;4969570;28;20047;-52
2022/05/28 12:26:28;;;;;;;1.67;0.20;;;27.80;41.20;;;;;;4971574;28;20129;-48
2022/05/28 12:29:01;;;;;;;1.10;0.20;;;27.90;41.10;;;;;;4969895;28;20142;-49
2022/05/28 12:31:28;;;;;;;2.53;0.30;;;27.90;41.00;;;;;;4969827;28;20046;-49
2022/05/28 12:33:59;;;;;;;0.38;0.10;;;27.90;41.50;;;;;;4969265;28;20483;-51
2022/05/28 12:36:38;;;;;;;1.48;0.20;;;27.90;40.70;;;;;;4968721;28;20137;-52
2022/05/28 12:39:23;;;;;;;0.20;0.10;;;27.90;40.70;;;;;;4969722;28;20058;-50
2022/05/28 12:41:57;;;;;;;0.77;0.17;;;28.00;40.70;;;;;;4965148;28;20074;-50
2022/05/28 12:44:25;;;;;;;2.13;0.22;;;28.00;40.60;;;;;;4970078;28;20811;-51
2022/05/28 12:46:55;;;;;;;1.10;0.10;;;28.00;40.50;;;;;;4969038;28;20158;-51
2022/05/28 12:49:27;;;;;;;1.75;0.30;;;28.10;40.40;;;;;;4968635;28;20546;-50
2022/05/28 12:52:31;;;;;;;3.53;0.28;;;28.10;40.20;;;;;;4969391;28;20511;-51
2022/05/28 12:55:18;;;;;;;1.45;0.20;;;28.10;40.10;;;;;;4969033;28;20137;-53
2022/05/28 12:57:58;;;;;;;0.43;0.10;;;28.10;40.10;;;;;;4951674;28;20045;-54
2022/05/28 13:00:28;;;;;;;0.32;0.10;;;28.10;40.10;;;;;;4969271;28;20039;-51
2022/05/28 13:02:56;;;;;;;0.45;0.10;;;28.20;40.10;;;;;;4968913;28;20046;-51
2022/05/28 13:05:32;;;;;;;2.05;0.10;;;28.20;39.90;;;;;;4969371;28;20092;-50
2022/05/28 13:08:05;;;;;;;0.32;0.10;;;28.20;39.70;;;;;;4969618;28;20046;-52
2022/05/28 13:10:34;;;;;;;0.60;0.20;;;28.20;39.60;;;;;;4968760;28;20652;-51
2022/05/28 13:13:20;;;;;;;0.20;0.10;;;28.20;39.60;;;;;;4968765;28;20125;-49